Time;durP1;ratioP1;P1;durP2;ratioP2;P2;SDS_P1;SDS_P2;PMS_P1;PMS_P2;Temp;Humidity;BMP_temperature;BMP_pressure;BME280_temperature;BME280_humidity;BME280_pressure;Samples;Min_cycle;Max_cycle;Signal;HPM_P1;HPM_P2
2022/09/07 00:02:19;;;;;;;8.35;3.80;;;;;;;;;;4424215;32;20669;-95
2022/09/07 00:04:46;;;;;;;7.60;4.15;;;;;;;;;;4424050;32;20243;-95
2022/09/07 00:07:13;;;;;;;8.70;4.30;;;;;;;;;;4423610;32;20228;-95
2022/09/07 00:09:42;;;;;;;10.15;4.00;;;;;;;;;;4423704;32;20233;-96
2022/09/07 00:12:11;;;;;;;11.40;4.40;;;;;;;;;;4423962;32;20627;-96
2022/09/07 00:14:38;;;;;;;6.00;3.90;;;;;;;;;;4423463;32;20235;-96
2022/09/07 00:17:10;;;;;;;9.57;3.67;;;;;;;;;;4410134;32;20241;-96
2022/09/07 00:19:47;;;;;;;6.05;3.42;;;;;;;;;;4423687;32;20285;-96
2022/09/07 00:22:14;;;;;;;13.05;4.62;;;;;;;;;;4424002;32;20213;-96
2022/09/07 00:24:45;;;;;;;4.12;3.15;;;;;;;;;;4423891;32;20335;-96
2022/09/07 00:27:14;;;;;;;7.43;3.78;;;;;;;;;;4424236;32;20789;-96
2022/09/07 00:29:44;;;;;;;5.80;3.62;;;;;;;;;;4423307;32;20271;-96
2022/09/07 00:32:13;;;;;;;7.57;4.18;;;;;;;;;;4423920;32;20233;-96
2022/09/07 00:34:42;;;;;;;6.37;4.25;;;;;;;;;;4423368;32;20249;-95
2022/09/07 00:37:13;;;;;;;10.98;3.92;;;;;;;;;;4423611;32;20658;-96
2022/09/07 00:39:44;;;;;;;4.40;4.00;;;;;;;;;;4409313;32;20298;-95
2022/09/07 00:42:14;;;;;;;13.85;3.55;;;;;;;;;;4424253;32;20215;-96
2022/09/07 00:45:12;;;;;;;5.12;3.33;;;;;;;;;;4407847;32;20278;-95
2022/09/07 00:47:58;;;;;;;16.92;4.10;;;;;;;;;;4427404;32;20752;-95
2022/09/07 00:50:30;;;;;;;6.60;3.83;;;;;;;;;;4408745;32;20233;-96
2022/09/07 00:53:03;;;;;;;6.03;3.45;;;;;;;;;;4424129;32;20268;-95
2022/09/07 00:55:35;;;;;;;8.57;3.40;;;;;;;;;;4409953;32;20628;-94
2022/09/07 00:58:07;;;;;;;5.93;3.15;;;;;;;;;;4423790;32;20294;-95
2022/09/07 01:00:35;;;;;;;4.87;3.42;;;;;;;;;;4410004;32;20241;-94
2022/09/07 01:03:05;;;;;;;7.53;4.22;;;;;;;;;;4424408;32;20264;-96
2022/09/07 01:05:38;;;;;;;9.35;3.47;;;;;;;;;;4410462;32;20312;-95
2022/09/07 01:08:09;;;;;;;4.12;3.72;;;;;;;;;;4424008;32;20237;-96
2022/09/07 01:10:38;;;;;;;4.00;3.08;;;;;;;;;;4423785;32;20263;-93
2022/09/07 01:13:11;;;;;;;4.53;2.97;;;;;;;;;;4424046;32;20202;-94
2022/09/07 01:15:46;;;;;;;10.13;4.18;;;;;;;;;;4410615;32;20249;-94
2022/09/07 01:18:26;;;;;;;9.48;2.87;;;;;;;;;;4410742;32;20241;-95
2022/09/07 01:21:21;;;;;;;4.78;3.15;;;;;;;;;;4423501;32;20353;-93
2022/09/07 01:24:23;;;;;;;8.23;4.18;;;;;;;;;;4424164;32;20245;-95
2022/09/07 01:27:41;;;;;;;6.47;3.17;;;;;;;;;;4422657;32;20267;-94
2022/09/07 01:30:09;;;;;;;7.20;3.08;;;;;;;;;;4410037;32;20222;-95
2022/09/07 01:33:02;;;;;;;4.20;3.53;;;;;;;;;;4423115;32;20262;-95
2022/09/07 01:35:40;;;;;;;5.20;3.55;;;;;;;;;;4409134;32;20324;-93
2022/09/07 01:41:02;;;;;;;3.97;3.45;;;;;;;;;;4422354;32;20676;-95
2022/09/07 01:43:40;;;;;;;6.90;3.45;;;;;;;;;;4422543;32;20317;-96
2022/09/07 01:46:25;;;;;;;8.38;3.00;;;;;;;;;;4409689;32;20271;-95
2022/09/07 01:48:56;;;;;;;5.75;3.10;;;;;;;;;;4422058;32;20244;-96
2022/09/07 01:51:31;;;;;;;7.78;3.25;;;;;;;;;;4422767;32;20205;-96
2022/09/07 01:54:03;;;;;;;5.78;3.12;;;;;;;;;;4421841;32;20462;-95
2022/09/07 01:56:43;;;;;;;7.80;3.83;;;;;;;;;;4422472;32;20555;-94
2022/09/07 01:59:19;;;;;;;5.65;3.42;;;;;;;;;;4422227;32;20225;-96
2022/09/07 02:01:54;;;;;;;5.25;3.05;;;;;;;;;;4422089;32;20421;-95
2022/09/07 02:04:34;;;;;;;3.80;3.03;;;;;;;;;;4422381;32;20721;-96
2022/09/07 02:07:07;;;;;;;4.32;3.55;;;;;;;;;;4422910;32;20210;-96
2022/09/07 02:09:41;;;;;;;8.73;3.55;;;;;;;;;;4421820;32;20252;-96
2022/09/07 02:12:13;;;;;;;4.62;3.17;;;;;;;;;;4422219;32;20577;-96
2022/09/07 02:14:50;;;;;;;4.10;3.58;;;;;;;;;;4422577;32;20251;-96
2022/09/07 02:17:32;;;;;;;4.70;3.15;;;;;;;;;;4408957;32;20244;-96
2022/09/07 02:20:05;;;;;;;4.25;3.10;;;;;;;;;;4422730;32;20217;-95
2022/09/07 02:22:40;;;;;;;5.45;3.58;;;;;;;;;;4422246;32;20243;-95
2022/09/07 02:25:11;;;;;;;5.30;3.62;;;;;;;;;;4422282;32;20240;-96
2022/09/07 02:27:46;;;;;;;4.57;3.50;;;;;;;;;;4422082;32;20209;-96
2022/09/07 02:30:16;;;;;;;6.35;3.65;;;;;;;;;;4422200;32;20204;-96
2022/09/07 02:32:46;;;;;;;18.17;4.57;;;;;;;;;;4408508;32;20621;-94
2022/09/07 02:35:19;;;;;;;4.93;3.75;;;;;;;;;;4409210;32;20216;-95
2022/09/07 02:37:49;;;;;;;5.03;3.92;;;;;;;;;;4409028;32;20267;-96
2022/09/07 02:40:19;;;;;;;7.68;3.70;;;;;;;;;;4422450;32;20225;-94
2022/09/07 02:42:48;;;;;;;10.77;3.72;;;;;;;;;;4408465;32;20248;-96
2022/09/07 02:45:20;;;;;;;6.22;3.90;;;;;;;;;;4422087;32;20303;-96
2022/09/07 02:48:13;;;;;;;6.65;3.95;;;;;;;;;;4421922;32;20327;-96
2022/09/07 02:50:50;;;;;;;9.18;4.37;;;;;;;;;;4397352;32;20260;-95
2022/09/07 02:53:35;;;;;;;7.07;4.12;;;;;;;;;;4429892;32;20257;-95
2022/09/07 02:56:22;;;;;;;5.62;3.85;;;;;;;;;;4433731;32;20232;-95
2022/09/07 02:58:55;;;;;;;13.48;4.10;;;;;;;;;;4422840;32;20626;-95
2022/09/07 03:01:39;;;;;;;7.37;4.78;;;;;;;;;;4408519;32;20334;-96
2022/09/07 03:04:13;;;;;;;8.85;4.57;;;;;;;;;;4408681;32;20251;-95
2022/09/07 03:06:43;;;;;;;9.93;3.97;;;;;;;;;;4408274;32;20616;-96
2022/09/07 03:09:18;;;;;;;12.57;4.60;;;;;;;;;;4408337;32;20239;-96
2022/09/07 03:11:47;;;;;;;6.57;4.03;;;;;;;;;;4408959;32;20630;-96
2022/09/07 03:14:17;;;;;;;8.40;3.10;;;;;;;;;;4422218;32;20266;-96
2022/09/07 03:17:05;;;;;;;9.95;4.78;;;;;;;;;;4421377;32;20383;-95
2022/09/07 03:19:34;;;;;;;15.07;3.80;;;;;;;;;;4408510;32;20270;-96
2022/09/07 03:22:01;;;;;;;5.45;3.90;;;;;;;;;;4408577;32;20237;-95
2022/09/07 03:24:28;;;;;;;4.60;3.92;;;;;;;;;;4407627;32;20313;-96
2022/09/07 03:26:57;;;;;;;5.50;3.95;;;;;;;;;;4407788;32;20269;-96
2022/09/07 03:29:34;;;;;;;6.20;3.62;;;;;;;;;;4421267;32;20283;-95
2022/09/07 03:32:11;;;;;;;5.53;3.70;;;;;;;;;;4408164;32;20308;-96
2022/09/07 03:34:39;;;;;;;7.05;3.35;;;;;;;;;;4421733;32;20220;-96
2022/09/07 03:37:10;;;;;;;8.48;4.47;;;;;;;;;;4407749;32;20683;-96
2022/09/07 03:39:40;;;;;;;7.45;3.33;;;;;;;;;;4395950;32;20298;-95
2022/09/07 03:42:17;;;;;;;6.12;4.40;;;;;;;;;;4421602;32;20327;-94
2022/09/07 03:44:47;;;;;;;4.95;4.18;;;;;;;;;;4421639;32;20215;-96
2022/09/07 03:47:19;;;;;;;10.55;4.10;;;;;;;;;;4408611;32;20311;-96
2022/09/07 03:49:50;;;;;;;5.53;4.15;;;;;;;;;;4421628;32;20227;-94
2022/09/07 03:52:19;;;;;;;5.12;3.83;;;;;;;;;;4407528;32;20252;-95
2022/09/07 03:54:46;;;;;;;11.82;3.67;;;;;;;;;;4421640;32;20300;-94
2022/09/07 03:57:19;;;;;;;9.60;3.37;;;;;;;;;;4407492;32;20292;-94
2022/09/07 03:59:46;;;;;;;7.15;4.12;;;;;;;;;;4407813;32;20649;-95
2022/09/07 04:02:19;;;;;;;4.12;3.22;;;;;;;;;;4421901;32;20307;-94
2022/09/07 04:04:48;;;;;;;5.95;4.22;;;;;;;;;;4409255;32;20388;-95
2022/09/07 04:07:16;;;;;;;5.78;3.55;;;;;;;;;;4424163;32;20244;-95
2022/09/07 04:09:50;;;;;;;8.07;4.22;;;;;;;;;;4423719;32;20383;-96
2022/09/07 04:12:18;;;;;;;8.35;4.10;;;;;;;;;;4423874;32;20294;-95
2022/09/07 04:14:48;;;;;;;7.28;4.45;;;;;;;;;;4423419;32;20232;-94
2022/09/07 04:17:17;;;;;;;5.53;4.28;;;;;;;;;;4423300;32;20308;-95
2022/09/07 04:19:45;;;;;;;10.65;4.45;;;;;;;;;;4424171;32;20248;-95
2022/09/07 04:22:12;;;;;;;6.07;3.95;;;;;;;;;;4424130;32;20332;-95
2022/09/07 04:24:41;;;;;;;4.18;3.47;;;;;;;;;;4423994;32;20550;-94
2022/09/07 04:27:10;;;;;;;10.82;5.05;;;;;;;;;;4424277;32;20325;-95
2022/09/07 04:29:38;;;;;;;8.07;3.80;;;;;;;;;;4423260;32;20580;-95
2022/09/07 04:32:06;;;;;;;11.07;4.72;;;;;;;;;;4410356;32;20270;-95
2022/09/07 04:34:37;;;;;;;6.32;3.72;;;;;;;;;;4410220;32;20320;-95
2022/09/07 04:37:05;;;;;;;10.18;4.22;;;;;;;;;;4410394;32;20320;-96
2022/09/07 04:39:33;;;;;;;4.37;3.25;;;;;;;;;;4423383;32;20276;-95
2022/09/07 04:42:04;;;;;;;4.72;3.42;;;;;;;;;;4424565;32;20254;-96
2022/09/07 04:44:32;;;;;;;7.40;3.95;;;;;;;;;;4424148;32;20237;-96
2022/09/07 04:46:59;;;;;;;9.73;4.22;;;;;;;;;;4423896;32;20257;-93
2022/09/07 04:49:28;;;;;;;12.37;4.07;;;;;;;;;;4410204;32;20576;-94
2022/09/07 04:52:04;;;;;;;8.90;4.12;;;;;;;;;;4409855;32;20245;-96
2022/09/07 04:54:32;;;;;;;7.47;4.47;;;;;;;;;;4424271;32;20224;-95
2022/09/07 04:57:02;;;;;;;5.22;4.18;;;;;;;;;;4409855;32;20298;-96
2022/09/07 04:59:30;;;;;;;4.55;4.15;;;;;;;;;;4424699;32;20310;-95
2022/09/07 05:01:58;;;;;;;10.07;4.25;;;;;;;;;;4428159;32;20274;-94
2022/09/07 05:04:26;;;;;;;10.55;4.25;;;;;;;;;;4425145;32;20319;-94
2022/09/07 05:06:58;;;;;;;7.85;3.67;;;;;;;;;;4426959;32;20267;-94
2022/09/07 05:09:29;;;;;;;8.80;4.12;;;;;;;;;;4411511;32;20331;-95
2022/09/07 05:11:59;;;;;;;11.15;4.57;;;;;;;;;;4410416;32;20259;-96
2022/09/07 05:14:30;;;;;;;8.93;4.87;;;;;;;;;;4423718;32;20239;-95
2022/09/07 05:16:58;;;;;;;8.43;4.78;;;;;;;;;;4423940;32;20315;-93
2022/09/07 05:19:26;;;;;;;5.85;4.47;;;;;;;;;;4423533;32;20290;-94
2022/09/07 05:21:59;;;;;;;16.73;5.93;;;;;;;;;;4409568;32;20662;-95
2022/09/07 05:24:38;;;;;;;6.18;5.07;;;;;;;;;;4410269;32;20294;-95
2022/09/07 05:27:07;;;;;;;17.60;5.97;;;;;;;;;;4423270;32;20266;-96
2022/09/07 05:29:37;;;;;;;12.20;5.55;;;;;;;;;;4423430;32;20284;-96
2022/09/07 05:32:07;;;;;;;13.13;5.95;;;;;;;;;;4423986;32;20371;-96
2022/09/07 05:34:41;;;;;;;11.50;7.00;;;;;;;;;;4423569;32;20356;-94
2022/09/07 05:37:11;;;;;;;11.38;6.03;;;;;;;;;;4423683;32;20665;-96
2022/09/07 05:39:40;;;;;;;11.05;5.68;;;;;;;;;;4423642;32;20292;-96
2022/09/07 05:42:14;;;;;;;15.00;5.90;;;;;;;;;;4424135;32;20244;-96
2022/09/07 05:44:47;;;;;;;16.90;8.07;;;;;;;;;;4423561;32;20272;-96
2022/09/07 05:47:16;;;;;;;13.88;4.97;;;;;;;;;;4423550;32;20236;-96
2022/09/07 05:49:49;;;;;;;33.83;10.43;;;;;;;;;;4409693;32;20290;-96
2022/09/07 05:52:32;;;;;;;15.18;5.57;;;;;;;;;;4423112;32;20279;-96
2022/09/07 05:55:09;;;;;;;8.05;4.62;;;;;;;;;;4423156;32;20321;-96
2022/09/07 05:57:37;;;;;;;8.32;4.72;;;;;;;;;;4409198;32;20228;-96
2022/09/07 06:00:08;;;;;;;16.90;5.22;;;;;;;;;;4422736;32;20225;-96
2022/09/07 06:02:39;;;;;;;11.70;4.60;;;;;;;;;;4409437;32;20278;-95
2022/09/07 06:05:11;;;;;;;21.30;8.75;;;;;;;;;;4422984;32;20201;-95
2022/09/07 06:07:39;;;;;;;9.90;5.15;;;;;;;;;;4408980;32;20273;-95
2022/09/07 06:10:12;;;;;;;15.43;4.15;;;;;;;;;;4422703;32;20701;-94
2022/09/07 06:12:42;;;;;;;15.23;4.93;;;;;;;;;;4422755;32;20229;-96
2022/09/07 06:15:11;;;;;;;18.00;5.22;;;;;;;;;;4422635;32;20259;-96
2022/09/07 06:17:43;;;;;;;26.12;8.13;;;;;;;;;;4408530;32;20245;-95
2022/09/07 06:20:18;;;;;;;14.07;5.55;;;;;;;;;;4408597;32;20253;-96
2022/09/07 06:22:47;;;;;;;6.87;5.10;;;;;;;;;;4408724;32;20298;-96
2022/09/07 06:25:16;;;;;;;10.50;5.25;;;;;;;;;;4422026;32;20241;-96
2022/09/07 06:27:46;;;;;;;12.73;5.97;;;;;;;;;;4421973;32;20264;-96
2022/09/07 06:30:16;;;;;;;15.52;5.93;;;;;;;;;;4422141;32;20270;-96
2022/09/07 06:33:02;;;;;;;14.95;5.68;;;;;;;;;;4423012;32;20233;-96
2022/09/07 06:35:33;;;;;;;6.35;4.95;;;;;;;;;;4422663;32;20305;-94
2022/09/07 06:38:01;;;;;;;13.18;4.57;;;;;;;;;;4422965;32;20221;-95
2022/09/07 06:40:33;;;;;;;10.05;5.75;;;;;;;;;;4422064;32;20259;-95
2022/09/07 06:43:00;;;;;;;18.37;4.97;;;;;;;;;;4422112;32;20272;-93
2022/09/07 06:45:32;;;;;;;16.23;5.20;;;;;;;;;;4423459;32;20320;-96
2022/09/07 06:48:01;;;;;;;11.88;4.62;;;;;;;;;;4422240;32;20232;-95
2022/09/07 06:50:30;;;;;;;8.63;5.28;;;;;;;;;;4408579;32;20249;-96
2022/09/07 06:52:57;;;;;;;8.52;5.40;;;;;;;;;;4421669;32;20296;-94
2022/09/07 06:55:24;;;;;;;11.52;5.40;;;;;;;;;;4421910;32;20654;-95
2022/09/07 06:57:57;;;;;;;9.27;4.82;;;;;;;;;;4421438;32;20355;-96
2022/09/07 07:00:25;;;;;;;17.23;5.97;;;;;;;;;;4422019;32;20253;-96
2022/09/07 07:02:53;;;;;;;17.52;6.28;;;;;;;;;;4421936;32;20240;-95
2022/09/07 07:05:22;;;;;;;15.70;7.80;;;;;;;;;;4423011;32;20236;-96
2022/09/07 07:07:52;;;;;;;12.32;5.68;;;;;;;;;;4422790;32;20232;-95
2022/09/07 07:10:20;;;;;;;16.35;6.35;;;;;;;;;;4422226;32;20213;-96
2022/09/07 07:12:48;;;;;;;12.10;6.30;;;;;;;;;;4422907;32;20237;-95
2022/09/07 07:17:53;;;;;;;10.27;5.95;;;;;;;;;;4387139;32;20280;-82
2022/09/07 07:20:20;;;;;;;10.65;4.75;;;;;;;;;;4388821;32;20522;-82
2022/09/07 07:22:51;;;;;;;7.18;4.78;;;;;;;;;;4388580;32;20305;-81
2022/09/07 07:25:19;;;;;;;6.78;4.10;;;;;;;;;;4388821;32;20534;-80
2022/09/07 07:27:47;;;;;;;9.30;4.95;;;;;;;;;;4388296;32;20240;-81
2022/09/07 07:30:15;;;;;;;12.43;4.85;;;;;;;;;;4388973;32;20611;-82
2022/09/07 07:32:43;;;;;;;8.35;4.45;;;;;;;;;;4388499;32;20246;-83
2022/09/07 07:35:13;;;;;;;9.63;4.00;;;;;;;;;;4389003;32;20723;-81
2022/09/07 07:37:41;;;;;;;15.10;3.87;;;;;;;;;;4388807;32;20628;-81
2022/09/07 07:40:12;;;;;;;9.00;6.07;;;;;;;;;;4390696;32;20577;-80
2022/09/07 07:42:40;;;;;;;20.90;8.50;;;;;;;;;;4391637;32;20632;-80
2022/09/07 07:45:09;;;;;;;7.25;3.92;;;;;;;;;;4390831;32;20593;-81
2022/09/07 07:47:37;;;;;;;8.20;5.47;;;;;;;;;;4391536;32;20511;-81
2022/09/07 07:50:07;;;;;;;8.20;4.80;;;;;;;;;;4391312;32;20580;-81
2022/09/07 07:52:37;;;;;;;5.72;3.87;;;;;;;;;;4391415;32;20270;-81
2022/09/07 07:55:05;;;;;;;6.60;4.68;;;;;;;;;;4391158;32;20572;-82
2022/09/07 07:57:33;;;;;;;9.13;4.45;;;;;;;;;;4391223;32;20514;-81
2022/09/07 08:00:01;;;;;;;6.90;4.70;;;;;;;;;;4391586;32;20603;-81
2022/09/07 08:02:28;;;;;;;9.50;5.47;;;;;;;;;;4391125;32;20584;-81
2022/09/07 08:04:55;;;;;;;9.25;4.43;;;;;;;;;;4391754;32;20726;-81
2022/09/07 08:07:23;;;;;;;11.75;4.35;;;;;;;;;;4392414;32;20536;-82
2022/09/07 08:09:52;;;;;;;6.87;3.87;;;;;;;;;;4394573;32;20674;-92
2022/09/07 08:12:21;;;;;;;8.73;4.97;;;;;;;;;;4393747;32;20618;-94
2022/09/07 08:14:48;;;;;;;8.45;4.82;;;;;;;;;;4392460;32;20543;-91
2022/09/07 08:17:17;;;;;;;7.60;5.32;;;;;;;;;;4391513;32;20543;-91
2022/09/07 08:19:46;;;;;;;11.75;5.32;;;;;;;;;;4391488;32;20567;-90
2022/09/07 08:22:13;;;;;;;11.80;5.22;;;;;;;;;;4392616;32;20670;-96
2022/09/07 08:24:41;;;;;;;10.05;5.50;;;;;;;;;;4391576;32;20529;-91
2022/09/07 08:27:10;;;;;;;7.97;4.75;;;;;;;;;;4390965;32;20539;-86
2022/09/07 08:29:37;;;;;;;8.07;5.30;;;;;;;;;;4392596;32;20226;-88
2022/09/07 08:32:06;;;;;;;8.93;4.80;;;;;;;;;;4391655;32;20563;-87
2022/09/07 08:34:36;;;;;;;11.52;4.68;;;;;;;;;;4390724;32;20578;-91
2022/09/07 08:37:04;;;;;;;8.45;5.15;;;;;;;;;;4391305;32;20212;-91
2022/09/07 08:39:31;;;;;;;16.58;10.60;;;;;;;;;;4390900;32;20599;-89
2022/09/07 08:42:31;;;;;;;19.15;13.15;;;;;;;;;;4391436;32;20524;-92
2022/09/07 08:45:05;;;;;;;11.63;5.95;;;;;;;;;;4390868;32;20443;-91
2022/09/07 08:47:38;;;;;;;17.83;5.65;;;;;;;;;;4391484;32;20543;-82
2022/09/07 08:50:10;;;;;;;7.87;5.82;;;;;;;;;;4390324;32;20598;-84
2022/09/07 08:52:47;;;;;;;8.40;5.45;;;;;;;;;;4390242;32;20610;-84
2022/09/07 08:55:19;;;;;;;8.88;5.25;;;;;;;;;;4390593;32;20616;-80
2022/09/07 08:57:54;;;;;;;13.75;5.95;;;;;;;;;;4390670;32;20638;-81
2022/09/07 09:00:22;;;;;;;9.00;4.68;;;;;;;;;;4390445;32;20603;-84
2022/09/07 09:02:51;;;;;;;10.07;5.60;;;;;;;;;;4389976;32;20739;-89
2022/09/07 09:05:28;;;;;;;10.07;5.22;;;;;;;;;;4390117;32;20493;-84
2022/09/07 09:08:07;;;;;;;10.40;6.10;;;;;;;;;;4390325;32;20312;-83
2022/09/07 09:10:42;;;;;;;7.10;5.03;;;;;;;;;;4389696;32;20582;-80
2022/09/07 09:13:17;;;;;;;12.18;5.62;;;;;;;;;;4390513;32;20371;-84
2022/09/07 09:16:01;;;;;;;8.35;5.20;;;;;;;;;;4390973;32;20603;-80
2022/09/07 09:18:37;;;;;;;7.45;5.30;;;;;;;;;;4390142;32;20555;-89
2022/09/07 09:21:06;;;;;;;8.05;5.43;;;;;;;;;;4390967;32;20535;-87
2022/09/07 09:23:39;;;;;;;6.78;5.47;;;;;;;;;;4390211;32;20338;-88
2022/09/07 09:26:14;;;;;;;8.55;5.18;;;;;;;;;;4390491;32;20625;-85
2022/09/07 09:28:43;;;;;;;12.65;6.93;;;;;;;;;;4390123;32;20558;-81
2022/09/07 09:31:19;;;;;;;10.23;5.72;;;;;;;;;;4390326;32;20623;-89
2022/09/07 09:34:08;;;;;;;13.10;5.78;;;;;;;;;;4390148;32;20618;-87
2022/09/07 09:36:40;;;;;;;9.18;5.05;;;;;;;;;;4390539;32;20595;-87
2022/09/07 09:39:26;;;;;;;11.70;6.50;;;;;;;;;;4392440;32;20587;-89
2022/09/07 09:41:56;;;;;;;11.57;5.62;;;;;;;;;;4389947;32;20595;-88
2022/09/07 09:44:29;;;;;;;11.32;5.10;;;;;;;;;;4390592;32;20666;-90
2022/09/07 09:46:57;;;;;;;8.55;5.60;;;;;;;;;;4390878;32;20202;-88
2022/09/07 09:49:30;;;;;;;6.93;6.03;;;;;;;;;;4390118;32;20586;-84
2022/09/07 09:51:59;;;;;;;12.57;8.25;;;;;;;;;;4390500;32;20485;-89
2022/09/07 09:54:31;;;;;;;22.60;11.43;;;;;;;;;;4390119;32;20529;-90
2022/09/07 09:56:59;;;;;;;13.88;7.28;;;;;;;;;;4390579;32;20527;-86
2022/09/07 09:59:30;;;;;;;13.27;6.07;;;;;;;;;;4390124;32;20645;-87
2022/09/07 10:01:59;;;;;;;14.45;5.18;;;;;;;;;;4389432;32;20535;-89
2022/09/07 10:04:33;;;;;;;19.65;7.75;;;;;;;;;;4389763;32;20253;-87
2022/09/07 10:07:22;;;;;;;16.48;6.57;;;;;;;;;;4390111;32;20264;-88
2022/09/07 10:09:51;;;;;;;6.75;5.95;;;;;;;;;;4389571;32;20551;-83
2022/09/07 10:12:27;;;;;;;9.20;5.72;;;;;;;;;;4390030;32;20500;-90
2022/09/07 10:14:56;;;;;;;7.62;5.75;;;;;;;;;;4389743;32;20387;-90
2022/09/07 10:17:30;;;;;;;6.97;4.82;;;;;;;;;;4389659;32;20627;-91
2022/09/07 10:20:01;;;;;;;8.23;6.15;;;;;;;;;;4390020;32;20226;-89
2022/09/07 10:22:35;;;;;;;7.80;5.30;;;;;;;;;;4425488;27;20656;-86
2022/09/07 10:25:04;;;;;;;8.43;5.03;;;;;;;;;;4467547;27;20224;-88
2022/09/07 10:27:35;;;;;;;8.38;5.28;;;;;;;;;;4434144;32;20656;-81
2022/09/07 10:30:10;;;;;;;8.20;6.00;;;;;;;;;;4427745;32;20328;-82
2022/09/07 10:33:05;;;;;;;6.72;5.35;;;;;;;;;;4423117;32;20522;-85
2022/09/07 10:35:36;;;;;;;7.03;4.65;;;;;;;;;;4407245;32;20598;-90
2022/09/07 10:38:15;;;;;;;4.95;4.45;;;;;;;;;;4421671;32;20599;-89
2022/09/07 10:40:47;;;;;;;6.57;5.00;;;;;;;;;;4422738;32;20536;-87
2022/09/07 10:43:32;;;;;;;5.72;3.87;;;;;;;;;;4423207;32;20499;-84
2022/09/07 10:46:14;;;;;;;14.63;4.05;;;;;;;;;;4423006;32;20340;-87
2022/09/07 10:48:51;;;;;;;5.75;4.10;;;;;;;;;;4423135;32;20363;-87
2022/09/07 10:51:27;;;;;;;6.18;3.92;;;;;;;;;;4422045;32;20225;-84
2022/09/07 10:54:05;;;;;;;4.85;3.72;;;;;;;;;;4421636;32;20248;-85
2022/09/07 10:56:36;;;;;;;3.80;3.40;;;;;;;;;;4420979;32;20268;-89
2022/09/07 10:59:18;;;;;;;3.97;3.12;;;;;;;;;;4420059;32;20307;-88
2022/09/07 11:01:55;;;;;;;7.32;3.45;;;;;;;;;;4419946;32;20636;-90
2022/09/07 11:04:38;;;;;;;5.18;3.62;;;;;;;;;;4419656;32;20642;-88
2022/09/07 11:07:19;;;;;;;4.07;3.12;;;;;;;;;;4420239;32;20549;-84
2022/09/07 11:09:55;;;;;;;4.70;3.50;;;;;;;;;;4420028;32;20665;-90
2022/09/07 11:12:28;;;;;;;3.60;2.95;;;;;;;;;;4419828;32;20606;-91
2022/09/07 11:15:04;;;;;;;4.18;3.03;;;;;;;;;;4422602;32;20574;-89
2022/09/07 11:17:43;;;;;;;5.50;3.60;;;;;;;;;;4422781;32;20754;-88
2022/09/07 11:20:18;;;;;;;3.30;2.95;;;;;;;;;;4422682;32;20308;-88
2022/09/07 11:22:50;;;;;;;5.72;3.20;;;;;;;;;;4422860;32;20529;-86
2022/09/07 11:25:22;;;;;;;4.03;3.15;;;;;;;;;;4422340;32;20624;-88
2022/09/07 11:27:53;;;;;;;6.53;3.35;;;;;;;;;;4422470;32;20561;-87
2022/09/07 11:30:24;;;;;;;4.68;3.37;;;;;;;;;;4422374;32;20615;-88
2022/09/07 11:33:04;;;;;;;3.92;2.60;;;;;;;;;;4422436;32;20634;-83
2022/09/07 11:35:47;;;;;;;5.20;3.25;;;;;;;;;;4422145;32;20709;-89
2022/09/07 11:38:24;;;;;;;4.18;2.75;;;;;;;;;;4423403;32;20578;-87
2022/09/07 11:41:02;;;;;;;7.95;3.33;;;;;;;;;;4423589;32;20540;-90
2022/09/07 11:43:35;;;;;;;4.32;3.00;;;;;;;;;;4422789;32;20547;-88
2022/09/07 11:46:06;;;;;;;7.10;2.75;;;;;;;;;;4429020;32;20323;-82
2022/09/07 11:48:40;;;;;;;8.65;3.03;;;;;;;;;;4432210;32;20208;-87
2022/09/07 11:51:14;;;;;;;5.20;2.92;;;;;;;;;;4432077;32;20576;-83
2022/09/07 11:53:47;;;;;;;2.75;2.42;;;;;;;;;;4428543;32;20640;-87
2022/09/07 11:56:19;;;;;;;3.92;2.60;;;;;;;;;;4424084;32;20550;-88
2022/09/07 11:59:08;;;;;;;8.32;2.80;;;;;;;;;;4422307;32;20247;-86
2022/09/07 12:01:46;;;;;;;4.87;2.45;;;;;;;;;;4419972;32;20672;-88
2022/09/07 12:04:28;;;;;;;3.47;2.50;;;;;;;;;;4422138;32;20551;-88
2022/09/07 12:07:24;;;;;;;7.70;3.25;;;;;;;;;;4421795;32;20540;-90
2022/09/07 12:10:28;;;;;;;3.22;2.80;;;;;;;;;;4416548;32;20744;-85
2022/09/07 12:13:28;;;;;;;3.75;2.55;;;;;;;;;;4409634;32;20309;-90
2022/09/07 12:16:01;;;;;;;3.55;2.67;;;;;;;;;;4422050;32;20565;-90
2022/09/07 12:18:51;;;;;;;3.42;2.50;;;;;;;;;;4422055;32;20307;-89
2022/09/07 12:21:40;;;;;;;4.70;3.15;;;;;;;;;;4421879;32;20579;-88
2022/09/07 12:24:39;;;;;;;7.18;2.78;;;;;;;;;;4421768;32;20581;-90
2022/09/07 12:27:09;;;;;;;3.12;2.83;;;;;;;;;;4422831;32;20545;-85
2022/09/07 12:29:37;;;;;;;4.93;3.00;;;;;;;;;;4424966;32;20565;-87
2022/09/07 12:32:06;;;;;;;5.80;2.97;;;;;;;;;;4424480;32;20542;-87
2022/09/07 12:35:00;;;;;;;6.43;2.97;;;;;;;;;;4423702;32;20657;-88
2022/09/07 12:37:40;;;;;;;3.97;2.90;;;;;;;;;;4422801;32;20315;-85
2022/09/07 12:40:46;;;;;;;3.90;2.53;;;;;;;;;;4421598;32;20578;-88
2022/09/07 12:43:48;;;;;;;4.82;2.83;;;;;;;;;;4420307;32;20637;-89
2022/09/07 12:46:20;;;;;;;2.87;2.67;;;;;;;;;;4421893;32;20702;-89
2022/09/07 12:49:00;;;;;;;2.83;2.55;;;;;;;;;;4421867;32;20617;-89
2022/09/07 12:51:36;;;;;;;4.05;3.00;;;;;;;;;;4421670;32;20625;-90
2022/09/07 12:54:14;;;;;;;6.55;3.28;;;;;;;;;;4421526;32;20609;-88
2022/09/07 12:56:46;;;;;;;9.93;3.30;;;;;;;;;;4422032;32;20648;-91
2022/09/07 12:59:47;;;;;;;3.25;2.25;;;;;;;;;;4421767;32;20620;-90
2022/09/07 13:02:35;;;;;;;3.42;2.50;;;;;;;;;;4423299;32;20534;-88
2022/09/07 13:05:14;;;;;;;6.72;2.55;;;;;;;;;;4423397;32;20317;-90
2022/09/07 13:08:08;;;;;;;4.18;2.90;;;;;;;;;;4422232;32;20523;-89
2022/09/07 13:10:39;;;;;;;7.50;2.97;;;;;;;;;;4412531;32;20295;-84
2022/09/07 13:13:17;;;;;;;2.55;2.30;;;;;;;;;;4422562;32;20561;-87
2022/09/07 13:15:46;;;;;;;7.72;2.53;;;;;;;;;;4422016;32;20693;-91
2022/09/07 13:18:43;;;;;;;9.73;3.05;;;;;;;;;;4422289;32;20696;-90
2022/09/07 13:21:38;;;;;;;3.75;3.25;;;;;;;;;;4420910;32;20620;-88
2022/09/07 13:24:35;;;;;;;4.70;2.97;;;;;;;;;;4422206;32;20255;-90
2022/09/07 13:27:27;;;;;;;3.55;2.87;;;;;;;;;;4422180;32;20759;-87
2022/09/07 13:29:57;;;;;;;5.22;2.95;;;;;;;;;;4420908;32;20637;-91
2022/09/07 13:32:28;;;;;;;3.22;2.62;;;;;;;;;;4421627;32;20272;-91
2022/09/07 13:35:09;;;;;;;14.43;2.78;;;;;;;;;;4422275;32;20621;-91
2022/09/07 13:37:45;;;;;;;3.58;3.22;;;;;;;;;;4421888;32;20201;-88
2022/09/07 13:40:18;;;;;;;3.85;2.35;;;;;;;;;;4421865;32;20354;-91
2022/09/07 13:42:49;;;;;;;3.35;2.55;;;;;;;;;;4421821;32;20626;-89
2022/09/07 13:45:44;;;;;;;3.33;2.90;;;;;;;;;;4421070;32;20626;-86
2022/09/07 13:48:19;;;;;;;2.85;2.55;;;;;;;;;;4422193;32;20201;-86
2022/09/07 13:50:56;;;;;;;3.17;2.87;;;;;;;;;;4421674;32;20679;-79
2022/09/07 13:53:56;;;;;;;5.50;3.10;;;;;;;;;;4423169;32;20613;-87
2022/09/07 13:56:36;;;;;;;5.10;3.42;;;;;;;;;;4411885;32;20643;-87
2022/09/07 13:59:18;;;;;;;3.90;3.22;;;;;;;;;;4421923;32;20640;-87
2022/09/07 14:01:48;;;;;;;4.20;2.85;;;;;;;;;;4422705;32;20275;-87
2022/09/07 14:04:23;;;;;;;2.53;2.33;;;;;;;;;;4422872;32;20229;-88
2022/09/07 14:06:51;;;;;;;3.87;2.80;;;;;;;;;;4422628;32;20533;-89
2022/09/07 14:09:21;;;;;;;9.23;3.00;;;;;;;;;;4421771;32;20302;-87
2022/09/07 14:11:51;;;;;;;8.93;3.53;;;;;;;;;;4422294;32;20609;-88
2022/09/07 14:14:22;;;;;;;4.53;2.95;;;;;;;;;;4422767;32;20582;-86
2022/09/07 14:16:55;;;;;;;8.32;3.05;;;;;;;;;;4423163;32;20610;-86
2022/09/07 14:19:25;;;;;;;3.58;2.75;;;;;;;;;;4422469;32;20217;-86
2022/09/07 14:21:57;;;;;;;4.05;3.28;;;;;;;;;;4422562;32;20535;-87
2022/09/07 14:24:30;;;;;;;5.20;3.17;;;;;;;;;;4422206;32;20586;-87
2022/09/07 14:26:59;;;;;;;6.25;3.10;;;;;;;;;;4421603;32;20620;-83
2022/09/07 14:29:30;;;;;;;4.60;2.80;;;;;;;;;;4420646;32;20263;-83
2022/09/07 14:31:59;;;;;;;8.90;3.75;;;;;;;;;;4422303;32;20570;-85
2022/09/07 14:34:30;;;;;;;5.82;3.58;;;;;;;;;;4421608;32;20634;-84
2022/09/07 14:37:00;;;;;;;3.37;2.92;;;;;;;;;;4422456;32;20252;-83
2022/09/07 14:39:30;;;;;;;3.80;2.40;;;;;;;;;;4423580;32;20300;-82
2022/09/07 14:41:58;;;;;;;4.20;3.25;;;;;;;;;;4423080;32;20550;-80
2022/09/07 14:44:36;;;;;;;3.42;2.75;;;;;;;;;;4431268;32;20332;-83
2022/09/07 14:47:23;;;;;;;13.30;4.15;;;;;;;;;;4428209;32;20288;-82
2022/09/07 14:49:53;;;;;;;5.70;3.30;;;;;;;;;;4405954;32;20578;-82
2022/09/07 14:52:34;;;;;;;3.37;3.00;;;;;;;;;;4419204;32;20528;-81
2022/09/07 14:55:06;;;;;;;4.22;3.40;;;;;;;;;;4420095;32;20616;-81
2022/09/07 14:57:34;;;;;;;4.60;3.12;;;;;;;;;;4420778;32;20280;-81
2022/09/07 15:00:28;;;;;;;6.87;4.05;;;;;;;;;;4419556;32;20547;-81
2022/09/07 15:02:55;;;;;;;5.15;3.20;;;;;;;;;;4419960;32;20571;-82
2022/09/07 15:05:26;;;;;;;3.95;3.28;;;;;;;;;;4419435;32;20225;-82
2022/09/07 15:07:56;;;;;;;4.15;3.33;;;;;;;;;;4419945;32;20656;-82
2022/09/07 15:10:35;;;;;;;7.30;3.58;;;;;;;;;;4419684;32;20466;-81
2022/09/07 15:13:06;;;;;;;3.17;2.95;;;;;;;;;;4419342;32;20606;-81
2022/09/07 15:15:37;;;;;;;4.25;3.28;;;;;;;;;;4419553;32;20358;-81
2022/09/07 15:18:26;;;;;;;3.92;2.75;;;;;;;;;;4419424;32;20549;-81
2022/09/07 15:20:54;;;;;;;4.20;3.03;;;;;;;;;;4419296;32;20308;-82
2022/09/07 15:23:22;;;;;;;3.12;2.62;;;;;;;;;;4419533;32;20546;-84
2022/09/07 15:25:51;;;;;;;8.45;3.87;;;;;;;;;;4419312;32;20438;-86